createdAt,value
2023-04-23T00:00:19.139Z,20.60
2023-04-23T00:02:50.082Z,20.60
2023-04-23T00:05:17.060Z,20.60
2023-04-23T00:07:43.827Z,20.60
2023-04-23T00:10:11.115Z,20.60
2023-04-23T00:12:38.118Z,20.60
2023-04-23T00:15:06.819Z,20.60
2023-04-23T00:17:34.561Z,20.60
2023-04-23T00:20:01.229Z,20.60
2023-04-23T00:22:28.052Z,20.60
2023-04-23T00:24:54.719Z,20.60
2023-04-23T00:27:21.432Z,20.60
2023-04-23T00:29:48.257Z,20.60
2023-04-23T00:32:15.104Z,20.50
2023-04-23T00:34:42.132Z,20.50
2023-04-23T00:37:09.063Z,20.50
2023-04-23T00:39:38.593Z,20.50
2023-04-23T00:42:12.211Z,20.50
2023-04-23T00:44:39.294Z,20.50
2023-04-23T00:47:07.943Z,20.50
2023-04-23T00:49:36.621Z,20.50
2023-04-23T00:52:03.793Z,20.40
2023-04-23T00:54:31.127Z,20.40
2023-04-23T00:57:00.492Z,20.40
2023-04-23T00:59:27.320Z,20.40
2023-04-23T01:01:54.212Z,20.40
2023-04-23T01:04:21.437Z,20.40
2023-04-23T01:06:48.299Z,20.40
2023-04-23T01:09:15.709Z,20.40
2023-04-23T01:11:43.412Z,20.40
2023-04-23T01:14:10.581Z,20.40
2023-04-23T01:16:41.120Z,20.40
2023-04-23T01:19:09.348Z,20.40
2023-04-23T01:21:38.044Z,20.50
2023-04-23T01:24:05.170Z,20.50
2023-04-23T01:26:32.162Z,20.50
2023-04-23T01:28:59.903Z,20.50
2023-04-23T01:31:27.352Z,20.50
2023-04-23T01:33:55.377Z,20.60
2023-04-23T01:36:25.754Z,20.60
2023-04-23T01:38:53.175Z,20.50
2023-04-23T01:41:22.445Z,20.50
2023-04-23T01:43:49.150Z,20.50
2023-04-23T01:46:16.404Z,20.50
2023-04-23T01:48:43.158Z,20.50
2023-04-23T01:51:10.537Z,20.50
2023-04-23T01:53:37.258Z,20.50
2023-04-23T01:56:04.074Z,20.50
2023-04-23T01:58:30.766Z,20.50
2023-04-23T02:00:57.472Z,20.50
2023-04-23T02:03:24.333Z,20.50
2023-04-23T02:05:51.147Z,20.40
2023-04-23T02:08:17.885Z,20.40
2023-04-23T02:10:44.613Z,20.40
2023-04-23T02:13:11.677Z,20.40
2023-04-23T02:15:38.423Z,20.40
2023-04-23T02:18:05.768Z,20.40
2023-04-23T02:20:32.646Z,20.40
2023-04-23T02:22:59.346Z,20.40
2023-04-23T02:25:26.467Z,20.40
2023-04-23T02:27:53.267Z,20.40
2023-04-23T02:30:20.199Z,20.40
2023-04-23T02:32:46.949Z,20.40
2023-04-23T02:35:13.715Z,20.40
2023-04-23T02:37:40.831Z,20.40
2023-04-23T02:40:09.190Z,20.30
2023-04-23T02:42:35.921Z,20.30
2023-04-23T02:45:02.910Z,20.30
2023-04-23T02:47:31.203Z,20.30
2023-04-23T02:49:58.246Z,20.30
2023-04-23T02:52:25.220Z,20.40
2023-04-23T02:54:51.967Z,20.40
2023-04-23T02:57:19.182Z,20.40
2023-04-23T02:59:46.294Z,20.40
2023-04-23T03:02:14.276Z,20.50
2023-04-23T03:04:41.595Z,20.50
2023-04-23T03:07:08.654Z,20.50
2023-04-23T03:09:35.374Z,20.40
2023-04-23T03:12:02.390Z,20.40
2023-04-23T03:14:29.132Z,20.50
2023-04-23T03:16:56.005Z,20.50
2023-04-23T03:19:22.862Z,20.50
2023-04-23T03:21:49.595Z,20.50
2023-04-23T03:24:16.669Z,20.50
2023-04-23T03:26:43.535Z,20.50
2023-04-23T03:29:10.739Z,20.50
2023-04-23T03:31:37.535Z,20.40
2023-04-23T03:34:04.270Z,20.40
2023-04-23T03:36:31.022Z,20.40
2023-04-23T03:38:57.753Z,20.40
2023-04-23T03:41:24.413Z,20.40
2023-04-23T03:43:51.103Z,20.30
2023-04-23T03:46:17.835Z,20.40
2023-04-23T03:48:45.111Z,20.30
2023-04-23T03:51:12.170Z,20.30
2023-04-23T03:53:38.844Z,20.30
2023-04-23T03:56:05.760Z,20.30
2023-04-23T03:58:32.437Z,20.30
2023-04-23T04:00:59.162Z,20.30
2023-04-23T04:03:26.105Z,20.30
2023-04-23T04:05:53.049Z,20.30
2023-04-23T04:08:19.841Z,20.20
2023-04-23T04:10:47.995Z,20.30
2023-04-23T04:13:16.274Z,20.30
2023-04-23T04:15:43.704Z,20.30
2023-04-23T04:18:10.669Z,20.30
2023-04-23T04:20:37.471Z,20.20
2023-04-23T04:23:04.156Z,20.30
2023-04-23T04:25:30.997Z,20.30
2023-04-23T04:27:57.708Z,20.20
2023-04-23T04:30:24.855Z,20.30
2023-04-23T04:32:51.652Z,20.30
2023-04-23T04:35:19.048Z,20.30
2023-04-23T04:37:45.787Z,20.40
2023-04-23T04:40:12.797Z,20.40
2023-04-23T04:42:39.499Z,20.40
2023-04-23T04:45:12.524Z,20.40
2023-04-23T04:47:39.203Z,20.40
2023-04-23T04:50:06.470Z,20.40
2023-04-23T04:52:33.504Z,20.40
2023-04-23T04:55:00.181Z,20.50
2023-04-23T04:57:26.844Z,20.40
2023-04-23T04:59:53.922Z,20.40
2023-04-23T05:02:22.037Z,20.50
2023-04-23T05:04:49.952Z,20.50
2023-04-23T05:07:17.746Z,20.50
2023-04-23T05:09:45.276Z,20.50
2023-04-23T05:12:12.199Z,20.50
2023-04-23T05:14:38.986Z,20.50
2023-04-23T05:17:05.695Z,20.50
2023-04-23T05:19:32.547Z,20.50
2023-04-23T05:21:59.341Z,20.50
2023-04-23T05:24:26.477Z,20.50
2023-04-23T05:26:53.198Z,20.50
2023-04-23T05:29:20.093Z,20.50
2023-04-23T05:31:47.450Z,20.50
2023-04-23T05:34:14.333Z,20.50
2023-04-23T05:36:41.209Z,20.50
2023-04-23T05:39:08.414Z,20.50
2023-04-23T05:41:35.112Z,20.50
2023-04-23T05:44:01.855Z,20.50
2023-04-23T05:46:28.683Z,20.50
2023-04-23T05:48:55.491Z,20.50
2023-04-23T05:51:22.217Z,20.50
2023-04-23T05:53:49.660Z,20.50
2023-04-23T05:56:17.345Z,20.50
2023-04-23T05:58:44.940Z,20.50
2023-04-23T06:01:11.699Z,20.50
2023-04-23T06:03:38.826Z,20.50
2023-04-23T06:06:05.750Z,20.50
2023-04-23T06:08:32.474Z,20.50
2023-04-23T06:11:00.024Z,20.50
2023-04-23T06:13:28.169Z,20.50
2023-04-23T06:15:54.946Z,20.50
2023-04-23T06:18:21.667Z,20.50
2023-04-23T06:20:51.399Z,20.50
2023-04-23T06:23:19.494Z,20.50
2023-04-23T06:25:46.228Z,20.50
2023-04-23T06:28:13.001Z,20.50
2023-04-23T06:30:39.890Z,20.50
2023-04-23T06:33:06.635Z,20.50
2023-04-23T06:35:33.465Z,20.50
2023-04-23T06:38:00.239Z,20.50
2023-04-23T06:40:27.006Z,20.50
2023-04-23T06:42:53.791Z,20.50
2023-04-23T06:45:20.454Z,20.50
2023-04-23T06:47:49.276Z,20.50
2023-04-23T06:50:16.011Z,20.50
2023-04-23T06:52:43.197Z,20.50
2023-04-23T06:55:10.339Z,20.50
2023-04-23T06:57:37.015Z,20.50
2023-04-23T07:00:06.421Z,20.50
2023-04-23T07:02:33.217Z,20.50
2023-04-23T07:05:00.005Z,20.50
2023-04-23T07:07:26.773Z,20.50
2023-04-23T07:09:53.562Z,20.50
2023-04-23T07:12:20.335Z,20.50
2023-04-23T07:14:48.317Z,20.50
2023-04-23T07:17:15.037Z,20.50
2023-04-23T07:19:42.410Z,20.50
2023-04-23T07:22:09.121Z,20.50
2023-04-23T07:24:36.016Z,20.50
2023-04-23T07:27:04.045Z,20.50
2023-04-23T07:29:30.991Z,20.50
2023-04-23T07:31:57.738Z,20.50
2023-04-23T07:34:24.453Z,20.50
2023-04-23T07:36:52.080Z,20.50
2023-04-23T07:39:19.613Z,20.50
2023-04-23T07:41:46.906Z,20.50
2023-04-23T07:44:14.071Z,20.50
2023-04-23T07:46:40.782Z,20.50
2023-04-23T07:49:07.907Z,20.50
2023-04-23T07:51:34.686Z,20.50
2023-04-23T07:54:01.441Z,20.50
2023-04-23T07:56:28.269Z,20.50
2023-04-23T07:58:56.586Z,20.50
2023-04-23T08:01:23.314Z,20.50
2023-04-23T08:03:50.266Z,20.50
2023-04-23T08:06:18.511Z,20.50
2023-04-23T08:08:45.230Z,20.50
2023-04-23T08:11:11.980Z,20.50
2023-04-23T08:13:38.710Z,20.50
2023-04-23T08:16:05.695Z,20.50
2023-04-23T08:18:32.460Z,20.50
2023-04-23T08:20:59.517Z,20.50
2023-04-23T08:23:26.253Z,20.50
2023-04-23T08:25:53.063Z,20.50
2023-04-23T08:28:19.996Z,20.50
2023-04-23T08:30:47.443Z,20.50
2023-04-23T08:33:14.633Z,20.50
2023-04-23T08:35:41.317Z,20.50
2023-04-23T08:38:07.988Z,20.50
2023-04-23T08:40:36.392Z,20.50
2023-04-23T08:43:03.837Z,20.50
2023-04-23T08:45:31.151Z,20.50
2023-04-23T08:48:01.746Z,20.50
2023-04-23T08:50:30.193Z,20.50
2023-04-23T08:52:57.753Z,20.50
2023-04-23T08:55:24.764Z,20.50
2023-04-23T08:57:51.778Z,20.50
2023-04-23T09:00:20.253Z,20.50
2023-04-23T09:02:49.799Z,20.50
2023-04-23T09:05:17.834Z,20.50
2023-04-23T09:07:45.507Z,20.50
2023-04-23T09:10:15.313Z,20.50
2023-04-23T09:12:44.087Z,20.60
2023-04-23T09:15:11.917Z,20.50
2023-04-23T09:17:41.091Z,20.60
2023-04-23T09:20:11.568Z,20.50
2023-04-23T09:22:48.791Z,20.50
2023-04-23T09:25:18.090Z,20.60
2023-04-23T09:27:46.113Z,20.70
2023-04-23T09:30:13.314Z,20.70
2023-04-23T09:32:42.168Z,20.70
2023-04-23T09:35:13.707Z,20.70
2023-04-23T09:37:44.125Z,20.80
2023-04-23T09:40:11.096Z,20.90
2023-04-23T09:42:37.931Z,20.90
2023-04-23T09:45:06.630Z,20.90
2023-04-23T09:47:40.635Z,20.90
2023-04-23T09:50:10.374Z,20.90
2023-04-23T09:52:40.291Z,21.00
2023-04-23T09:55:07.407Z,21.00
2023-04-23T09:57:44.128Z,21.00
2023-04-23T10:00:20.699Z,20.90
2023-04-23T10:02:50.532Z,20.90
2023-04-23T10:05:24.927Z,21.00
2023-04-23T10:07:54.407Z,21.00
2023-04-23T10:10:21.258Z,21.00
2023-04-23T10:12:54.266Z,21.00
2023-04-23T10:15:21.868Z,21.00
2023-04-23T10:17:51.208Z,21.00
2023-04-23T10:20:19.194Z,21.00
2023-04-23T10:22:46.576Z,21.10
2023-04-23T10:25:13.438Z,21.10
2023-04-23T10:27:53.792Z,21.00
2023-04-23T10:30:21.923Z,21.10
2023-04-23T10:32:50.487Z,21.10
2023-04-23T10:35:17.426Z,21.20
2023-04-23T10:37:45.247Z,21.20
2023-04-23T10:40:16.435Z,21.20
2023-04-23T10:42:43.658Z,21.10
2023-04-23T10:45:23.467Z,21.00
2023-04-23T10:47:51.266Z,20.90
2023-04-23T10:50:22.465Z,21.00
2023-04-23T10:52:57.295Z,21.10
2023-04-23T10:55:29.013Z,21.10
2023-04-23T10:58:05.961Z,21.00
2023-04-23T11:00:41.555Z,21.00
2023-04-23T11:03:27.462Z,21.00
2023-04-23T11:05:54.587Z,21.00
2023-04-23T11:08:21.277Z,21.00
2023-04-23T11:10:58.914Z,21.00
2023-04-23T11:13:26.753Z,21.00
2023-04-23T11:16:21.616Z,20.90
2023-04-23T11:19:03.591Z,20.90
2023-04-23T11:22:01.532Z,20.90
2023-04-23T11:24:37.278Z,21.00
2023-04-23T11:27:05.955Z,21.00
2023-04-23T11:29:32.663Z,20.90
2023-04-23T11:32:02.357Z,20.90
2023-04-23T11:34:30.811Z,20.90
2023-04-23T11:36:58.598Z,20.80
2023-04-23T11:39:25.834Z,20.90
2023-04-23T11:41:52.978Z,20.90
2023-04-23T11:44:21.307Z,20.90
2023-04-23T11:46:50.066Z,20.90
2023-04-23T11:49:21.735Z,20.90
2023-04-23T11:51:49.327Z,20.90
2023-04-23T11:54:16.318Z,20.90
2023-04-23T11:56:52.093Z,21.00
2023-04-23T11:59:44.680Z,21.10
2023-04-23T12:02:12.769Z,21.10
2023-04-23T12:04:41.247Z,21.10
2023-04-23T12:10:05.375Z,21.00
2023-04-23T12:12:40.830Z,21.10
2023-04-23T12:15:18.386Z,21.00
2023-04-23T12:17:52.073Z,21.00
2023-04-23T12:20:22.051Z,21.00
2023-04-23T12:22:48.793Z,21.00
2023-04-23T12:25:15.961Z,21.00
2023-04-23T12:27:44.401Z,20.90
2023-04-23T12:30:11.881Z,20.90
2023-04-23T12:32:38.895Z,21.00
2023-04-23T12:35:06.347Z,20.90
2023-04-23T12:37:35.863Z,20.80
2023-04-23T12:40:02.769Z,20.80
2023-04-23T12:42:29.508Z,20.70
2023-04-23T12:45:04.408Z,20.70
2023-04-23T12:47:31.120Z,20.70
2023-04-23T12:49:57.968Z,20.70
2023-04-23T12:52:24.739Z,20.70
2023-04-23T12:54:56.233Z,20.70
2023-04-23T12:57:24.444Z,20.70
2023-04-23T12:59:51.454Z,20.70
2023-04-23T13:02:18.266Z,20.70
2023-04-23T13:04:45.024Z,20.60
2023-04-23T13:07:11.748Z,20.70
2023-04-23T13:09:39.008Z,20.70
2023-04-23T13:12:05.777Z,20.70
2023-04-23T13:14:32.747Z,20.70
2023-04-23T13:16:59.481Z,20.70
2023-04-23T13:19:26.412Z,20.70
2023-04-23T13:21:54.936Z,20.60
2023-04-23T13:24:22.706Z,20.60
2023-04-23T13:26:49.449Z,20.60
2023-04-23T13:29:16.303Z,20.60
2023-04-23T13:31:43.130Z,20.60
2023-04-23T13:34:09.824Z,20.60
2023-04-23T13:36:37.190Z,20.60
2023-04-23T13:39:03.950Z,20.60
2023-04-23T13:41:30.644Z,20.60
2023-04-23T13:43:57.307Z,20.60
2023-04-23T13:46:24.651Z,20.60
2023-04-23T13:48:55.079Z,20.50
2023-04-23T13:51:33.796Z,20.50
2023-04-23T13:54:01.442Z,20.50
2023-04-23T13:56:29.961Z,20.50
2023-04-23T13:59:17.665Z,20.60
2023-04-23T14:01:47.252Z,20.60
2023-04-23T14:04:14.167Z,20.70
2023-04-23T14:06:41.037Z,20.70
2023-04-23T14:09:08.056Z,20.70
2023-04-23T14:11:34.871Z,20.70
2023-04-23T14:14:01.735Z,20.70
2023-04-23T14:16:28.528Z,20.70
2023-04-23T14:18:55.433Z,20.70
2023-04-23T14:21:23.506Z,20.70
2023-04-23T14:23:51.643Z,20.70
2023-04-23T14:26:48.100Z,20.70
2023-04-23T14:29:48.297Z,20.70
2023-04-23T14:32:15.124Z,20.70
2023-04-23T14:34:41.864Z,20.80
2023-04-23T14:37:08.641Z,20.70
2023-04-23T14:39:35.438Z,20.80
2023-04-23T14:42:02.639Z,20.80
2023-04-23T14:44:29.565Z,20.90
2023-04-23T14:46:56.521Z,20.90
2023-04-23T14:49:24.217Z,20.90
2023-04-23T14:51:55.103Z,21.00
2023-04-23T14:54:22.244Z,21.00
2023-04-23T14:56:48.974Z,21.00
2023-04-23T14:59:15.718Z,21.10
2023-04-23T15:01:42.779Z,21.10
2023-04-23T15:04:12.661Z,21.10
2023-04-23T15:06:40.479Z,21.20
2023-04-23T15:09:07.244Z,21.20
2023-04-23T15:11:34.021Z,21.20
2023-04-23T15:14:20.568Z,21.20
2023-04-23T15:16:48.684Z,21.20
2023-04-23T15:19:18.045Z,21.20
2023-04-23T15:21:45.442Z,21.30
2023-04-23T15:24:12.131Z,21.30
2023-04-23T15:26:39.020Z,21.40
2023-04-23T15:29:08.660Z,21.30
2023-04-23T15:31:38.954Z,21.30
2023-04-23T15:34:08.365Z,21.30
2023-04-23T15:36:35.766Z,21.40
2023-04-23T15:39:02.555Z,21.40
2023-04-23T15:41:29.239Z,21.40
2023-04-23T15:43:56.953Z,21.50
2023-04-23T15:46:24.589Z,21.40
2023-04-23T15:48:52.945Z,21.50
2023-04-23T15:51:20.126Z,21.50
2023-04-23T15:53:46.841Z,21.60
2023-04-23T15:56:13.901Z,21.60
2023-04-23T15:58:40.665Z,21.50
2023-04-23T16:01:09.685Z,21.60
2023-04-23T16:03:36.663Z,21.50
2023-04-23T16:06:04.539Z,21.50
2023-04-23T16:08:32.203Z,21.50
2023-04-23T16:10:59.349Z,21.50
2023-04-23T16:13:28.416Z,21.50
2023-04-23T16:15:56.468Z,21.50
2023-04-23T16:18:23.154Z,21.50
2023-04-23T16:20:49.829Z,21.50
2023-04-23T16:23:16.581Z,21.50
2023-04-23T16:25:43.658Z,21.50
2023-04-23T16:28:10.446Z,21.40
2023-04-23T16:30:37.251Z,21.40
2023-04-23T16:33:04.111Z,21.40
2023-04-23T16:35:31.115Z,21.40
2023-04-23T16:37:57.878Z,21.40
2023-04-23T16:40:26.199Z,21.40
2023-04-23T16:42:52.984Z,21.40
2023-04-23T16:45:23.069Z,21.40
2023-04-23T16:47:53.179Z,21.40
2023-04-23T16:50:28.738Z,21.30
2023-04-23T16:52:56.811Z,21.40
2023-04-23T16:55:23.536Z,21.50
2023-04-23T16:57:51.157Z,21.50
2023-04-23T17:00:18.128Z,21.50
2023-04-23T17:02:45.054Z,21.50
2023-04-23T17:05:11.845Z,21.50
2023-04-23T17:07:40.685Z,20.90
2023-04-23T17:10:07.972Z,20.30
2023-04-23T17:12:34.636Z,20.00
2023-04-23T17:15:01.336Z,20.30
2023-04-23T17:17:28.740Z,20.60
2023-04-23T17:19:57.156Z,21.00
2023-04-23T17:22:24.939Z,21.30
2023-04-23T17:24:51.811Z,21.40
2023-04-23T17:27:18.539Z,21.50
2023-04-23T17:29:46.805Z,21.50
2023-04-23T17:32:13.677Z,21.60
2023-04-23T17:34:40.663Z,21.70
2023-04-23T17:37:07.517Z,21.60
2023-04-23T17:39:34.496Z,21.60
2023-04-23T17:42:01.994Z,21.60
2023-04-23T17:44:28.796Z,21.60
2023-04-23T17:46:56.451Z,21.70
2023-04-23T17:49:24.787Z,21.70
2023-04-23T17:51:52.118Z,21.70
2023-04-23T17:54:19.069Z,21.60
2023-04-23T17:56:45.769Z,21.50
2023-04-23T17:59:12.511Z,21.50
2023-04-23T18:01:39.493Z,21.50
2023-04-23T18:04:06.992Z,21.50
2023-04-23T18:06:35.715Z,21.50
2023-04-23T18:09:02.767Z,21.40
2023-04-23T18:11:29.492Z,21.30
2023-04-23T18:13:56.512Z,21.40
2023-04-23T18:16:23.304Z,21.40
2023-04-23T18:18:50.824Z,21.50
2023-04-23T18:21:18.457Z,21.50
2023-04-23T18:23:45.562Z,21.40
2023-04-23T18:26:12.345Z,21.50
2023-04-23T18:28:39.395Z,21.40
2023-04-23T18:31:06.347Z,21.40
2023-04-23T18:33:37.170Z,21.30
2023-04-23T18:36:32.239Z,21.30
2023-04-23T18:38:59.191Z,21.30
2023-04-23T18:41:34.345Z,21.40
2023-04-23T18:44:02.506Z,21.30
2023-04-23T18:46:31.182Z,21.40
2023-04-23T18:49:06.749Z,21.40
2023-04-23T18:51:38.274Z,21.30
2023-04-23T18:54:06.012Z,21.30
2023-04-23T18:56:33.872Z,21.40
2023-04-23T18:59:00.915Z,21.50
2023-04-23T19:01:28.444Z,21.50
2023-04-23T19:03:57.558Z,21.50
2023-04-23T19:06:26.680Z,21.60
2023-04-23T19:08:53.524Z,21.60
2023-04-23T19:11:20.384Z,21.60
2023-04-23T19:13:47.148Z,21.40
2023-04-23T19:16:16.300Z,21.40
2023-04-23T19:18:43.005Z,21.40
2023-04-23T19:21:09.750Z,21.40
2023-04-23T19:23:36.810Z,21.40
2023-04-23T19:26:03.967Z,21.50
2023-04-23T19:28:30.849Z,21.40
2023-04-23T19:30:57.855Z,21.40
2023-04-23T19:33:25.848Z,21.40
2023-04-23T19:35:52.574Z,21.40
2023-04-23T19:38:20.016Z,21.30
2023-04-23T19:40:46.700Z,21.30
2023-04-23T19:43:13.867Z,21.20
2023-04-23T19:45:40.706Z,21.20
2023-04-23T19:48:08.435Z,21.20
2023-04-23T19:50:35.726Z,21.20
2023-04-23T19:53:03.629Z,21.20
2023-04-23T19:55:30.518Z,21.20
2023-04-23T19:57:57.354Z,21.10
2023-04-23T20:00:26.139Z,21.20
2023-04-23T20:02:53.457Z,21.10
2023-04-23T20:05:22.068Z,21.10
2023-04-23T20:07:49.068Z,21.10
2023-04-23T20:10:17.529Z,21.10
2023-04-23T20:12:44.636Z,21.00
2023-04-23T20:15:12.459Z,21.00
2023-04-23T20:17:39.344Z,21.00
2023-04-23T20:20:06.656Z,21.00
2023-04-23T20:22:34.301Z,21.10
2023-04-23T20:25:05.309Z,21.10
2023-04-23T20:27:32.082Z,21.00
2023-04-23T20:29:59.165Z,21.00
2023-04-23T20:32:27.297Z,20.90
2023-04-23T20:34:55.014Z,20.90
2023-04-23T20:37:22.129Z,20.90
2023-04-23T20:39:49.756Z,20.90
2023-04-23T20:42:16.526Z,20.80
2023-04-23T20:44:45.499Z,20.90
2023-04-23T20:47:12.600Z,20.90
2023-04-23T20:49:40.219Z,20.90
2023-04-23T20:52:07.389Z,20.90
2023-04-23T20:54:34.909Z,20.90
2023-04-23T20:57:02.339Z,20.90
2023-04-23T20:59:29.343Z,20.90
2023-04-23T21:01:56.860Z,20.80
2023-04-23T21:04:24.122Z,20.90
2023-04-23T21:06:51.111Z,20.80
2023-04-23T21:09:17.868Z,20.80
2023-04-23T21:11:44.592Z,20.80
2023-04-23T21:14:11.349Z,20.80
2023-04-23T21:16:38.209Z,20.80
2023-04-23T21:19:05.021Z,20.80
2023-04-23T21:21:32.507Z,20.80
2023-04-23T21:24:02.928Z,20.80
2023-04-23T21:26:30.358Z,20.70
2023-04-23T21:28:57.766Z,20.70
2023-04-23T21:31:46.134Z,20.70
2023-04-23T21:34:14.117Z,20.70
2023-04-23T21:36:40.978Z,20.70
2023-04-23T21:39:07.962Z,20.70
2023-04-23T21:41:34.745Z,20.60
2023-04-23T21:44:01.580Z,20.70
2023-04-23T21:46:29.995Z,20.70
2023-04-23T21:48:56.787Z,20.60
2023-04-23T21:51:25.037Z,20.60
2023-04-23T21:53:51.788Z,20.60
2023-04-23T21:56:18.515Z,20.60
2023-04-23T21:58:45.485Z,20.60
2023-04-23T22:01:12.325Z,20.70
2023-04-23T22:03:42.798Z,20.60
2023-04-23T22:06:09.744Z,20.60
2023-04-23T22:08:40.204Z,20.60
2023-04-23T22:11:07.921Z,20.60
2023-04-23T22:13:34.862Z,20.50
2023-04-23T22:16:06.582Z,20.50
2023-04-23T22:18:38.288Z,20.50
2023-04-23T22:21:05.082Z,20.50
2023-04-23T22:23:32.972Z,20.50
2023-04-23T22:25:59.738Z,20.50
2023-04-23T22:28:26.479Z,20.50
2023-04-23T22:30:53.353Z,20.50
2023-04-23T22:33:20.168Z,20.50
2023-04-23T22:35:47.194Z,20.40
2023-04-23T22:38:13.938Z,20.40
2023-04-23T22:40:40.684Z,20.40
2023-04-23T22:43:07.346Z,20.40
2023-04-23T22:45:34.665Z,20.40
2023-04-23T22:48:01.459Z,20.40
2023-04-23T22:50:30.441Z,20.40
2023-04-23T22:52:57.115Z,20.40
2023-04-23T22:55:23.855Z,20.30
2023-04-23T22:57:50.572Z,20.30
2023-04-23T23:00:17.330Z,20.40
2023-04-23T23:02:44.071Z,20.40
2023-04-23T23:05:11.019Z,20.30
2023-04-23T23:07:38.581Z,20.30
2023-04-23T23:10:08.733Z,20.30
2023-04-23T23:12:36.730Z,20.30
2023-04-23T23:15:04.139Z,20.30
2023-04-23T23:17:31.182Z,20.30
2023-04-23T23:19:57.865Z,20.30
2023-04-23T23:22:24.545Z,20.30
2023-04-23T23:24:51.240Z,20.30
2023-04-23T23:27:17.903Z,20.30
2023-04-23T23:29:44.859Z,20.30
2023-04-23T23:32:11.674Z,20.30
2023-04-23T23:34:38.438Z,20.30
2023-04-23T23:37:06.587Z,20.30
2023-04-23T23:39:33.286Z,20.30
2023-04-23T23:42:00.049Z,20.30
2023-04-23T23:44:26.996Z,20.30
2023-04-23T23:46:53.695Z,20.30
2023-04-23T23:49:20.801Z,20.30
2023-04-23T23:51:47.589Z,20.20
2023-04-23T23:54:14.332Z,20.20
2023-04-23T23:56:41.507Z,20.20
2023-04-23T23:59:08.470Z,20.30
